Latest Coastal Weather Observations for Redcliffe

IDQ60701

Issued at 11:02 pm EST Saturday 23 July 2016 (issued every 10 minutes, with the page automatically refreshed every 10 minutes)

About coastal observations | Map of coastal stations | Coastal observations for QLD | Marine services | Other Formats
Station Details ID: 040958 Name: REDCLIFFE Lat: -27.22 Lon: 153.09 Height: 12.6 m
Data from the previous 72 hours. | See also: Recent months at Redcliffe
Date/Time
EST
Temp
°C
Wind Pressure Rain since
9am
mm
Weather Cloud Vis
km
Sea
Height
m
Swell
Dir  Spd
kts
Gust
kts
hPa Trend Height
m
Period
s
Dir
23/11:00pm 18.6 SW 5 7 1013.4 - 0.0 - - - - - - -
23/10:30pm 18.7 SW 13 18 1013.1 - 0.0 - - - - - - -
23/10:00pm 19.3 SW 11 18 1013.0 - 0.0 - - - - - - -
23/09:30pm 20.4 SW 9 13 1012.6 - 0.0 - - - - - - -
23/09:00pm 20.5 SW 13 17 1012.4 - 0.0 - - - - - - -
23/08:30pm 21.4 SW 8 10 1012.0 - 0.0 - - - - - - -
23/08:00pm 22.2 WSW 9 14 1011.4 - 0.0 - - - - - - -
23/07:30pm 23.1 WSW 6 7 1011.2 - 0.0 - - - - - - -
23/07:00pm 23.5 SW 5 7 1010.7 - 0.0 - - - - - - -
23/06:30pm 23.4 WSW 3 5 1009.9 - 0.0 - - - - - - -
23/06:00pm 24.8 NW 5 6 1009.5 - 0.0 - - - - - - -
23/05:30pm 25.2 NNW 4 6 1009.1 - 0.0 - - - - - - -
23/05:00pm 27.0 NW 5 7 1008.8 - 0.0 - - - - - - -
23/04:30pm 27.9 WNW 11 17 1008.4 - 0.0 - - - - - - -
23/04:00pm 28.3 W 9 16 1008.1 - 0.0 - - - - - - -
23/03:30pm 28.8 W 9 15 1008.0 - 0.0 - - - - - - -
23/03:00pm 28.6 W 12 18 1007.7 - 0.0 - - - - - - -
23/02:30pm 29.0 WNW 15 21 1007.7 - 0.0 - - - - - - -
23/02:07pm 28.7 WNW 15 26 1007.6 - 0.0 - - - - - - -
23/02:00pm 29.0 W 13 18 1007.6 - 0.0 - - - - - - -
23/01:30pm 28.0 W 15 27 1007.7 - 0.0 - - - - - - -
23/01:24pm 27.9 W 15 27 1007.5 - 0.0 - - - - - - -
23/01:00pm 29.1 W 14 19 1007.7 - 0.0 - - - - - - -
23/12:30pm 29.2 W 15 22 1008.0 - 0.0 - - - - - - -
23/12:00pm 28.8 WNW 12 19 1008.2 - 0.0 - - - - - - -
23/11:30am 28.0 NW 10 16 1008.5 - 0.0 - - - - - - -
23/11:00am 27.5 NNW 10 18 1008.9 - 0.0 - - - - - - -
23/10:30am 26.5 NNW 11 16 1009.4 - 0.0 - - - - - - -
23/10:00am 25.8 N 11 16 1009.9 - 0.0 - - - - - - -
23/09:30am 24.0 N 12 16 1010.2 - 0.0 - - - - - - -
23/09:00am 23.3 NNW 12 18 1010.5 - 0.2 - - - - - - -
23/08:30am 22.9 N 11 16 1010.6 - 0.2 - - - - - - -
23/08:00am 22.6 NNW 11 15 1010.7 - 0.2 - - - - - - -
23/07:30am 21.6 N 11 16 1010.5 - 0.2 - - - - - - -
23/07:00am 21.3 N 10 13 1010.3 - 0.2 - - - - - - -
23/06:30am 21.1 N 8 10 1009.9 - 0.2 - - - - - - -
23/06:00am 20.5 N 7 11 1009.9 - 0.2 - - - - - - -
23/05:30am 20.3 N 9 11 1009.6 - 0.2 - - - - - - -
23/05:00am 20.1 N 10 13 1009.7 - 0.2 - - - - - - -
23/04:30am 20.0 NNW 7 9 1009.7 - 0.0 - - - - - - -
23/04:00am 19.8 NNW 7 10 1009.6 - 0.0 - - - - - - -
23/03:30am 19.5 N 8 12 1009.7 - 0.0 - - - - - - -
23/03:00am 19.3 NNW 7 9 1009.9 - 0.0 - - - - - - -
23/02:30am 19.2 NNW 6 8 1010.1 - 0.0 - - - - - - -
23/02:00am 19.2 NW 6 7 1010.2 - 0.0 - - - - - - -
23/01:30am 19.6 NNW 7 9 1010.4 - 0.0 - - - - - - -
23/01:00am 19.4 NNW 6 8 1010.7 - 0.0 - - - - - - -
23/12:30am 19.2 NNW 7 9 1010.9 - 0.0 - - - - - - -
23/12:00am 19.4 NNW 8 10 1011.1 - 0.0 - - - - - - -
 
Date/Time
EST
Temp
°C
Wind Pressure Rain since
9am
mm
Weather Cloud Vis
km
Sea
Height
m
Swell
Dir  Spd
kts
Gust
kts
hPa Trend Height
m
Period
s
Dir
22/11:30pm 19.3 NNW 9 11 1011.3 - 0.0 - - - - - - -
22/11:00pm 19.5 NNW 8 12 1011.4 - 0.0 - - - - - - -
22/10:30pm 19.5 NNW 8 10 1011.5 - 0.0 - - - - - - -
22/10:00pm 19.8 NNW 7 9 1011.7 - 0.0 - - - - - - -
22/09:30pm 20.0 NNW 7 9 1011.7 - 0.0 - - - - - - -
22/09:00pm 20.1 NNW 9 13 1011.7 - 0.0 - - - - - - -
22/08:30pm 20.2 N 8 10 1011.8 - 0.0 - - - - - - -
22/08:00pm 20.4 N 8 9 1011.9 - 0.0 - - - - - - -
22/07:30pm 20.8 N 7 8 1011.9 - 0.0 - - - - - - -
22/07:00pm 20.9 N 9 11 1011.9 - 0.0 - - - - - - -
22/06:30pm 20.8 N 7 9 1011.7 - 0.0 - - - - - - -
22/06:00pm 21.0 N 10 12 1011.5 - 0.0 - - - - - - -
22/05:30pm 21.5 NNE 9 10 1011.3 - 0.0 - - - - - - -
22/05:00pm 21.9 NNE 10 10 1011.1 - 0.0 - - - - - - -
22/04:30pm 22.7 NNE 9 10 1010.9 - 0.0 - - - - - - -
22/04:00pm 23.0 NNE 8 9 1010.9 - 0.0 - - - - - - -
22/03:30pm 23.5 NE 11 14 1011.1 - 0.0 - - - - - - -
22/03:00pm 23.7 NE 13 14 1011.2 - 0.0 - - - - - - -
22/02:30pm 24.3 NE 11 13 1011.3 - 0.0 - - - - - - -
22/02:00pm 24.1 NE 9 10 1011.7 - 0.0 - - - - - - -
22/01:30pm 23.3 NE 7 9 1012.0 - 0.0 - - - - - - -
22/01:00pm 23.3 NE 4 6 1012.7 - 0.0 - - - - - - -
22/12:30pm 22.1 NE 5 6 1013.2 - 0.0 - - - - - - -
22/12:00pm 23.2 NE 6 8 1013.9 - 0.0 - - - - - - -
22/11:30am 23.9 NE 7 8 1014.6 - 0.0 - - - - - - -
22/11:00am 23.4 NE 6 7 1015.2 - 0.0 - - - - - - -
22/10:30am 22.1 NNE 8 8 1015.7 - 0.0 - - - - - - -
22/10:00am 21.0 NNE 7 8 1016.1 - 0.0 - - - - - - -
22/09:30am 21.2 NNE 4 5 1016.3 - 0.0 - - - - - - -
22/09:00am 20.0 NNW 5 6 1016.5 - 0.2 - - - - - - -
22/08:30am 18.5 NW 5 6 1016.4 - 0.2 - - - - - - -
22/08:00am 17.7 WNW 4 5 1016.3 - 0.2 - - - - - - -
22/07:30am 17.0 W 4 5 1015.9 - 0.2 - - - - - - -
22/07:00am 16.1 WSW 6 7 1016.0 - 0.2 - - - - - - -
22/06:30am 16.1 WNW 6 7 1015.9 - 0.2 - - - - - - -
22/06:00am 16.5 W 6 7 1015.5 - 0.2 - - - - - - -
22/05:30am 16.3 WSW 6 8 1015.3 - 0.2 - - - - - - -
22/05:00am 16.6 W 5 6 1015.2 - 0.2 - - - - - - -
22/04:30am 16.9 WSW 5 6 1015.4 - 0.2 - - - - - - -
22/04:00am 16.9 WSW 7 9 1015.4 - 0.2 - - - - - - -
22/03:30am 16.8 SW 5 6 1015.7 - 0.2 - - - - - - -
22/03:00am 17.1 SSW 4 6 1015.8 - 0.2 - - - - - - -
22/02:30am 17.6 S 5 7 1016.0 - 0.2 - - - - - - -
22/02:00am 17.6 SSW 5 7 1016.2 - 0.2 - - - - - - -
22/01:30am 17.7 SSE 6 7 1016.4 - 0.2 - - - - - - -
22/01:00am 18.0 SE 7 8 1016.7 - 0.2 - - - - - - -
22/12:30am 18.1 SSE 6 8 1016.5 - 0.2 - - - - - - -
22/12:00am 17.8 S 4 5 1016.6 - 0.2 - - - - - - -
 
Date/Time
EST
Temp
°C
Wind Pressure Rain since
9am
mm
Weather Cloud Vis
km
Sea
Height
m
Swell
Dir  Spd
kts
Gust
kts
hPa Trend Height
m
Period
s
Dir
21/11:30pm 17.9 SSE 6 7 1016.6 - 0.2 - - - - - - -
21/11:00pm 18.0 SSE 6 6 1016.4 - 0.2 - - - - - - -
21/10:30pm 18.8 NNW 3 4 1016.3 - 0.2 - - - - - - -
21/10:00pm 19.0 N 4 5 1016.3 - 0.2 - - - - - - -
21/09:30pm 19.2 NNW 4 5 1016.4 - 0.2 - - - - - - -
21/09:00pm 19.5 N 5 5 1016.3 - 0.2 - - - - - - -
21/08:30pm 19.6 N 5 6 1016.4 - 0.2 - - - - - - -
21/08:00pm 19.5 NNW 4 6 1016.6 - 0.2 - - - - - - -
21/07:30pm 19.6 NNW 7 8 1016.5 - 0.2 - - - - - - -
21/07:00pm 20.1 N 5 6 1016.5 - 0.2 - - - - - - -
21/06:30pm 20.6 N 6 7 1016.3 - 0.2 - - - - - - -
21/06:00pm 20.6 NNE 6 7 1016.0 - 0.2 - - - - - - -
21/05:30pm 20.8 NNE 6 6 1015.8 - 0.2 - - - - - - -
21/05:00pm 21.1 NNE 6 7 1015.6 - 0.2 - - - - - - -
21/04:30pm 21.9 NNE 9 10 1015.3 - 0.0 - - - - - - -
21/04:00pm 22.3 NNE 8 10 1015.3 - 0.0 - - - - - - -
21/03:30pm 23.0 NNE 7 8 1015.2 - 0.0 - - - - - - -
21/03:00pm 23.1 NNE 11 12 1015.2 - 0.0 - - - - - - -
21/02:30pm 23.5 NE 14 15 1015.2 - 0.0 - - - - - - -
21/02:00pm 23.0 NE 13 14 1015.6 - 0.0 - - - - - - -
21/01:30pm 23.4 NE 12 14 1016.0 - 0.0 - - - - - - -
21/01:00pm 24.4 NNE 5 7 1016.3 - 0.0 - - - - - - -
21/12:30pm 24.5 NNE 8 10 1016.8 - 0.0 - - - - - - -
21/12:00pm 23.9 NE 9 10 1017.3 - 0.0 - - - - - - -
21/11:30am 23.3 NE 9 10 1017.9 - 0.0 - - - - - - -
21/11:00am 22.8 NNE 7 8 1018.2 - 0.0 - - - - - - -
21/10:30am 21.9 NNE 5 6 1018.4 - 0.0 - - - - - - -
21/10:00am 20.6 NNE 6 8 1018.8 - 0.0 - - - - - - -
21/09:30am 20.3 NNE 6 7 1019.1 - 0.0 - - - - - - -
21/09:00am 19.9 NNW 5 7 1019.1 - 0.2 - - - - - - -
21/08:30am 19.6 NNW 5 6 1019.1 - 0.2 - - - - - - -
21/08:00am 17.9 NW 5 7 1019.0 - 0.2 - - - - - - -
21/07:30am 16.9 NW 5 7 1018.8 - 0.2 - - - - - - -
21/07:00am 16.9 NNW 5 6 1018.8 - 0.2 - - - - - - -
21/06:30am 16.8 N 5 6 1018.7 - 0.2 - - - - - - -
21/06:00am 16.7 NNW 5 6 1018.3 - 0.2 - - - - - - -
21/05:30am 16.4 NW 6 7 1018.3 - 0.2 - - - - - - -
21/05:00am 16.5 NW 6 8 1018.1 - 0.2 - - - - - - -
21/04:30am 16.4 NW 4 6 1018.0 - 0.2 - - - - - - -
21/04:00am 16.6 NW 4 5 1018.0 - 0.2 - - - - - - -
21/03:30am 16.9 NW 6 7 1018.2 - 0.2 - - - - - - -
21/03:00am 17.4 NW 5 7 1018.4 - 0.2 - - - - - - -
21/02:30am 17.5 NW 6 8 1018.5 - 0.2 - - - - - - -
21/02:00am 17.4 NW 5 7 1018.6 - 0.2 - - - - - - -
21/01:30am 17.5 NW 5 6 1018.9 - 0.2 - - - - - - -
21/01:00am 18.0 NNW 6 8 1019.3 - 0.2 - - - - - - -
21/12:30am 18.2 NW 6 7 1019.4 - 0.2 - - - - - - -
21/12:00am 18.5 NNW 7 10 1019.4 - 0.2 - - - - - - -
 
Date/Time
EST
Temp
°C
Wind Pressure Rain since
9am
mm
Weather Cloud Vis
km
Sea
Height
m
Swell
Dir  Spd
kts
Gust
kts
hPa Trend Height
m
Period
s
Dir
20/11:30pm 18.8 NNW 9 13 1019.7 - 0.2 - - - - - - -

Other Formats:

Comma delimited format used in spreadsheet applications
http://www.bom.gov.au/fwo/IDQ60701/IDQ60701.95591.axf

JavaScript Object Notation format (JSON) in row-major order
http://www.bom.gov.au/fwo/IDQ60701/IDQ60701.95591.json